Aeroporto :
LOGIN :

Iscrizione | Disclaimer

   EN    FR    IT 

 










Sommario :    VFR   VFR Marginale   IFR   IFR Intensivo   IFR Molto Intensivo
Visibilità : 
Base nubi : 
>= 8 km
>= 3000ft
5 / 8 km
1000 / 3000 ft
1500m / 5 km
500 / 1000 ft
800 / 1500m
200 / 500 ft
< 800m
< 200 ft
Simboli :   Temporali  Nebbia  Neve Forte  Precipitazioni Forti  Vento > 20 kt
SIGMETs :   Varie  Temporali  Ghiacco  Turbolenza  Onda orograficha  Ceneri Vulcaniche







- Altitudine del aeroporto : 196 ft
- Codice IATA : SDN


ENSD - Sandane , Anda

ULTIMO METAR :
  • 222020Z 14005KT 100V170 9999 -RADZ FEW001 SCT025 BKN035 15/15 Q1009 RMK WIND 1138FT 08008KT

METARs OBSOLETI :
  • 221950Z 15005KT 110V190 9999 -RADZ FEW006 SCT030 BKN040 15/15 Q1009 RMK WIND 1138FT 12004KT
  • 221920Z 14005KT 9999 -RADZ FEW006 BKN035 15/15 Q1009 RMK WIND 1138FT 11004KT
  • 221850Z 08003KT 030V130 9999 -RADZ FEW007 SCT032 BKN045 16/15 Q1009 RMK WIND 1138FT 09005KT
  • 221820Z VRB02KT 9999 -RA FEW027 BKN055 16/15 Q1009 RMK WIND 1138FT 08004KT

TAF N/A
Nessun NOTAM noto per questo aeroporto.



MetMap, La meteo Aeronautica in un colpo d'occhio ! - Copyright ORBIFLY Dicembre 2007 - Disclaimer

ORBIFLY MET'MAP TEAM :

Programmazione e sviluppo : Alexandra Zaïnal
Concezione e sviluppo : Baudouin d'Aumeries
Co-Programmazione e sviluppo : Marc-Olivier Méhu
Supporto tecnico e logistico : Manuel Goepfert
Aiuto per la traduzione : Arnaldo La Scala

Contatto : metmap@orbifly.com




FONTI E CREDITI :

   NOAA